Time;durP1;ratioP1;P1;durP2;ratioP2;P2;SDS_P1;SDS_P2;PMS_P1;PMS_P2;Temp;Humidity;BMP_temperature;BMP_pressure;BME280_temperature;BME280_humidity;BME280_pressure;Samples;Min_cycle;Max_cycle;Signal;HPM_P1;HPM_P2
2022/06/01 00:02:05;;;;;;;2.65;0.63;;;;;;;7.00;100.00;99709.38;7394577;19;20353;-91
2022/06/01 00:04:31;;;;;;;1.75;1.13;;;;;;;7.00;100.00;99717.69;7397878;19;20322;-91
2022/06/01 00:06:58;;;;;;;0.82;0.82;;;;;;;6.94;100.00;99702.13;7392698;19;20011;-91
2022/06/01 00:09:24;;;;;;;0.60;0.60;;;;;;;8.09;100.00;99693.00;7393671;19;20025;-91
2022/06/01 00:11:50;;;;;;;0.38;0.38;;;;;;;8.42;100.00;99699.47;7392575;19;20006;-92
2022/06/01 00:14:16;;;;;;;3.03;0.75;;;;;;;8.49;100.00;99696.38;7394954;19;20027;-92
2022/06/01 00:16:42;;;;;;;1.70;1.05;;;;;;;8.49;100.00;99701.91;7394794;19;20011;-91
2022/06/01 00:19:11;;;;;;;1.50;0.90;;;;;;;8.45;100.00;99695.75;7394475;19;20448;-91
2022/06/01 00:22:11;;;;;;;5.97;1.35;;;;;;;8.52;100.00;99701.00;7394273;19;20073;-92
2022/06/01 00:24:24;;;;;;;0.15;0.15;;;;;;;8.54;100.00;99692.97;7397078;19;20019;-91
2022/06/01 00:26:50;;;;;;;1.02;0.90;;;;;;;8.52;100.00;99689.13;7391778;19;20099;-91
2022/06/01 00:29:17;;;;;;;1.50;1.13;;;;;;;8.49;100.00;99684.53;7391897;19;20464;-91
2022/06/01 00:31:43;;;;;;;0.43;0.43;;;;;;;8.42;100.00;99693.94;7391941;19;20038;-91
2022/06/01 00:34:10;;;;;;;2.58;0.85;;;;;;;8.38;100.00;99687.78;7395232;19;20019;-91
2022/06/01 00:36:36;;;;;;;4.35;1.30;;;;;;;8.34;100.00;99695.47;7394156;19;20038;-91
2022/06/01 00:39:02;;;;;;;0.93;0.70;;;;;;;8.33;100.00;99693.94;7394908;19;20388;-91
2022/06/01 00:41:29;;;;;;;0.70;0.70;;;;;;;8.33;100.00;99696.72;7395475;19;20015;-91
2022/06/01 00:43:55;;;;;;;1.02;0.65;;;;;;;8.34;100.00;99703.78;7399925;19;20018;-91
2022/06/01 00:46:21;;;;;;;1.73;0.63;;;;;;;8.33;100.00;99705.03;7399475;19;20018;-91
2022/06/01 00:48:52;;;;;;;5.47;0.80;;;;;;;8.36;100.00;99704.09;7397832;19;20033;-91
2022/06/01 00:51:23;;;;;;;6.25;0.60;;;;;;;8.36;100.00;99702.09;7397543;19;20015;-91
2022/06/01 00:53:52;;;;;;;1.17;0.90;;;;;;;8.43;100.00;99703.78;7401451;19;20099;-91
2022/06/01 00:56:23;;;;;;;0.57;0.57;;;;;;;8.49;100.00;99701.91;7399828;19;20108;-91
2022/06/01 00:58:51;;;;;;;;;;;;;;;8.57;100.00;99700.38;7402876;19;20011;-91
2022/06/01 01:01:19;;;;;;;0.80;0.80;;;;;;;8.68;100.00;99703.44;7401164;19;19923;-91
2022/06/01 01:03:49;;;;;;;1.58;1.08;;;;;;;8.78;100.00;99702.19;7402995;19;20029;-91
2022/06/01 01:06:23;;;;;;;0.63;0.63;;;;;;;8.87;100.00;99704.94;7400604;19;20025;-91
2022/06/01 01:08:49;;;;;;;0.88;0.85;;;;;;;8.99;100.00;99703.19;7400084;19;20021;-91
2022/06/01 01:11:22;;;;;;;0.70;0.70;;;;;;;9.03;100.00;99693.44;7403479;19;20018;-92
2022/06/01 01:13:50;;;;;;;0.73;0.63;;;;;;;9.04;100.00;99697.00;7400068;19;20362;-91
2022/06/01 01:16:20;;;;;;;0.90;0.90;;;;;;;9.02;100.00;99696.69;7399637;19;20014;-91
2022/06/01 01:18:47;;;;;;;3.03;0.85;;;;;;;8.99;100.00;99700.41;7399284;19;20534;-90
2022/06/01 01:21:38;;;;;;;1.05;1.05;;;;;;;8.96;100.00;99696.56;7400296;19;20322;-91
2022/06/01 01:24:13;;;;;;;0.47;0.45;;;;;;;8.96;100.00;99684.69;7401024;19;20017;-91
2022/06/01 01:26:42;;;;;;;1.10;0.95;;;;;;;8.89;100.00;99683.00;7396061;19;20011;-90
2022/06/01 01:29:10;;;;;;;0.73;0.73;;;;;;;8.87;100.00;99676.38;7397658;19;20543;-90
2022/06/01 01:31:39;;;;;;;3.20;1.10;;;;;;;8.83;100.00;99693.22;7394100;19;20014;-89
2022/06/01 01:34:06;;;;;;;1.15;0.57;;;;;;;8.71;100.00;99688.63;7400233;19;20028;-90
2022/06/01 01:36:38;;;;;;;0.63;0.63;;;;;;;8.71;100.00;99677.50;7398150;19;20112;-91
2022/06/01 01:39:09;;;;;;;1.08;0.93;;;;;;;8.72;100.00;99679.06;7398348;19;20025;-90
2022/06/01 01:41:51;;;;;;;0.50;0.50;;;;;;;8.66;100.00;99672.59;7399718;19;20019;-90
2022/06/01 01:44:42;;;;;;;1.83;0.50;;;;;;;8.54;100.00;99665.22;7399630;19;20032;-90
2022/06/01 01:47:08;;;;;;;1.85;1.17;;;;;;;8.47;100.00;99654.44;7396353;19;20024;-88
2022/06/01 01:49:38;;;;;;;3.80;1.08;;;;;;;8.46;100.00;99652.13;7395865;19;20369;-89
2022/06/01 01:52:11;;;;;;;0.95;0.95;;;;;;;8.43;100.00;99659.38;7394719;19;20480;-88
2022/06/01 01:54:49;;;;;;;0.45;0.28;;;;;;;8.37;100.00;99650.94;7400501;19;20361;-87
2022/06/01 01:57:18;;;;;;;1.08;0.93;;;;;;;8.34;100.00;99659.41;7397833;19;20027;-85
2022/06/01 01:59:47;;;;;;;3.97;1.23;;;;;;;8.31;100.00;99660.34;7397818;19;20022;-87
2022/06/01 02:02:25;;;;;;;0.68;0.68;;;;;;;8.28;100.00;99659.25;7398892;19;20013;-88
2022/06/01 02:08:08;;;;;;;1.33;1.23;;;;;;;8.37;100.00;99656.47;7398354;19;20018;-87
2022/06/01 02:13:21;;;;;;;0.68;0.68;;;;;;;8.45;100.00;99656.91;7399345;19;20006;-87
2022/06/01 02:15:50;;;;;;;1.17;0.93;;;;;;;8.45;100.00;99661.69;7398246;19;20013;-86
2022/06/01 02:18:23;;;;;;;0.60;0.60;;;;;;;8.40;100.00;99666.63;7393534;19;20030;-86
2022/06/01 02:20:57;;;;;;;0.50;0.50;;;;;;;8.45;100.00;99673.56;7394686;19;20014;-87
2022/06/01 02:23:23;;;;;;;0.70;0.70;;;;;;;8.43;100.00;99675.25;7394765;19;20445;-87
2022/06/01 02:25:50;;;;;;;0.82;0.82;;;;;;;8.40;100.00;99671.44;7393356;19;20018;-86
2022/06/01 02:28:17;;;;;;;5.28;1.17;;;;;;;8.40;100.00;99672.19;7393532;19;20067;-87
2022/06/01 02:30:44;;;;;;;0.82;0.82;;;;;;;8.38;100.00;99673.91;7395200;19;20015;-87
2022/06/01 02:33:17;;;;;;;1.17;1.00;;;;;;;8.37;100.00;99675.13;7396205;19;20014;-87
2022/06/01 02:35:48;;;;;;;0.80;0.80;;;;;;;8.34;100.00;99667.72;7394513;19;20015;-86
2022/06/01 02:38:20;;;;;;;1.40;1.25;;;;;;;8.34;100.00;99667.72;7395650;19;20041;-87
2022/06/01 02:40:47;;;;;;;0.77;0.77;;;;;;;8.35;100.00;99663.72;7395833;19;20010;-87
2022/06/01 02:43:13;;;;;;;1.40;0.75;;;;;;;8.38;100.00;99669.09;7397501;19;20042;-87
2022/06/01 02:45:42;;;;;;;1.38;1.10;;;;;;;8.38;100.00;99668.34;7392274;19;20014;-92
2022/06/01 02:48:09;;;;;;;0.68;0.68;;;;;;;8.34;100.00;99670.50;7392868;19;20027;-88
2022/06/01 02:50:36;;;;;;;0.70;0.70;;;;;;;8.35;100.00;99670.03;7394326;19;20028;-87
2022/06/01 02:53:03;;;;;;;1.35;0.75;;;;;;;8.36;100.00;99668.03;7394931;19;20022;-87
2022/06/01 02:55:30;;;;;;;3.72;1.15;;;;;;;8.36;100.00;99670.78;7394294;19;20007;-87
2022/06/01 02:57:57;;;;;;;0.75;0.75;;;;;;;8.32;100.00;99675.75;7394004;19;20021;-86
2022/06/01 03:00:27;;;;;;;1.52;1.17;;;;;;;8.30;100.00;99678.22;7396912;19;20042;-87
2022/06/01 03:02:57;;;;;;;3.10;1.65;;;;;;;8.35;100.00;99685.91;7396122;19;20014;-87
2022/06/01 03:05:26;;;;;;;0.88;0.88;;;;;;;8.50;100.00;99686.81;7395219;19;20015;-87
2022/06/01 03:07:52;;;;;;;2.40;0.77;;;;;;;8.60;100.00;99682.78;7391431;19;20015;-87
2022/06/01 03:10:19;;;;;;;0.50;0.50;;;;;;;8.64;100.00;99686.16;7394429;19;20376;-87
2022/06/01 03:12:45;;;;;;;1.85;1.17;;;;;;;8.67;100.00;99679.69;7396965;19;20017;-86
2022/06/01 03:15:15;;;;;;;0.30;0.30;;;;;;;8.64;100.00;99686.16;7395350;19;20074;-87
2022/06/01 03:17:41;;;;;;;0.55;0.52;;;;;;;8.55;100.00;99683.44;7394988;19;20354;-88
2022/06/01 03:20:08;;;;;;;0.80;0.80;;;;;;;8.53;100.00;99679.56;7393460;19;20030;-87
2022/06/01 03:22:36;;;;;;;0.35;0.35;;;;;;;8.20;100.00;99684.97;7394140;19;20042;-88
2022/06/01 03:25:06;;;;;;;0.60;0.60;;;;;;;8.76;100.00;99682.44;7394169;19;20018;-87
2022/06/01 03:27:35;;;;;;;1.55;0.85;;;;;;;8.84;100.00;99688.41;7389956;19;20015;-86
2022/06/01 03:30:03;;;;;;;0.70;0.70;;;;;;;8.81;100.00;99681.81;7392486;19;20011;-87
2022/06/01 03:32:29;;;;;;;1.10;0.50;;;;;;;8.76;100.00;99696.31;7393285;19;20034;-87
2022/06/01 03:34:55;;;;;;;1.00;1.00;;;;;;;8.71;100.00;99696.16;7394635;19;20086;-87
2022/06/01 03:37:21;;;;;;;0.70;0.70;;;;;;;8.66;100.00;99677.38;7393500;19;20047;-87
2022/06/01 03:39:48;;;;;;;0.88;0.80;;;;;;;8.62;100.00;99688.63;7393722;19;20069;-88
2022/06/01 03:42:14;;;;;;;0.85;0.85;;;;;;;8.60;100.00;99685.56;7396654;19;20010;-88
2022/06/01 03:47:25;;;;;;;1.45;0.77;;;;;;;8.44;100.00;99685.91;7393952;19;20045;-88
2022/06/01 03:49:51;;;;;;;3.42;1.52;;;;;;;8.36;100.00;99701.31;7392963;19;20074;-87
2022/06/01 03:52:17;;;;;;;3.88;1.52;;;;;;;8.32;100.00;99703.47;7395458;19;20019;-88
2022/06/01 03:54:44;;;;;;;1.27;1.05;;;;;;;8.39;100.00;99703.16;7397650;19;20472;-87
2022/06/01 03:57:12;;;;;;;1.15;0.98;;;;;;;8.40;100.00;99704.72;7392461;19;20026;-88
2022/06/01 03:59:39;;;;;;;1.33;1.20;;;;;;;8.44;100.00;99701.78;7393378;19;20568;-86
2022/06/01 04:02:06;;;;;;;2.85;0.95;;;;;;;8.43;100.00;99703.78;7392340;19;20026;-87
2022/06/01 04:04:33;;;;;;;0.80;0.73;;;;;;;8.46;100.00;99702.88;7394361;19;20010;-87
2022/06/01 04:07:00;;;;;;;0.65;0.63;;;;;;;8.44;100.00;99710.09;7391109;19;20010;-87
2022/06/01 04:09:29;;;;;;;0.93;0.70;;;;;;;8.44;100.00;99697.00;7392749;19;20351;-86
2022/06/01 04:11:56;;;;;;;0.70;0.70;;;;;;;8.41;100.00;99695.16;7393564;19;20042;-87
2022/06/01 04:14:23;;;;;;;2.45;1.80;;;;;;;8.43;100.00;99703.78;7393744;19;20014;-87
2022/06/01 04:16:50;;;;;;;0.45;0.45;;;;;;;8.61;100.00;99701.00;7388459;19;20018;-82
2022/06/01 04:19:16;;;;;;;0.45;0.45;;;;;;;8.61;100.00;99701.00;7391705;19;20014;-82
2022/06/01 04:21:46;;;;;;;1.48;1.38;;;;;;;8.83;100.00;99701.56;7391517;19;20044;-82
2022/06/01 04:24:16;;;;;;;1.27;1.00;;;;;;;8.90;100.00;99703.22;7395147;19;20023;-82
2022/06/01 04:26:42;;;;;;;3.60;1.35;;;;;;;9.03;100.00;99701.78;7392504;19;20022;-82
2022/06/01 04:29:09;;;;;;;0.90;0.90;;;;;;;9.18;100.00;99706.66;7395176;19;20029;-82
2022/06/01 04:31:36;;;;;;;0.73;0.63;;;;;;;9.31;100.00;99704.44;7396252;19;20019;-82
2022/06/01 04:34:02;;;;;;;1.00;0.65;;;;;;;9.45;100.00;99703.75;7397657;19;20347;-82
2022/06/01 04:36:29;;;;;;;0.55;0.43;;;;;;;9.56;100.00;99698.44;7392396;19;20038;-84
2022/06/01 04:38:55;;;;;;;1.05;0.75;;;;;;;9.68;100.00;99716.91;7394124;19;20018;-84
2022/06/01 04:41:21;;;;;;;2.92;1.02;;;;;;;9.84;100.00;99713.72;7393521;19;20032;-85
2022/06/01 04:43:47;;;;;;;1.58;0.80;;;;;;;10.01;100.00;99711.25;7396545;19;20075;-83
2022/06/01 04:46:13;;;;;;;1.08;1.02;;;;;;;10.18;100.00;99715.94;7393826;19;20022;-83
2022/06/01 04:48:40;;;;;;;0.50;0.50;;;;;;;10.27;100.00;99718.66;7394019;19;20011;-82
2022/06/01 04:51:06;;;;;;;1.42;1.33;;;;;;;10.36;100.00;99715.03;7394876;19;20049;-83
2022/06/01 04:53:32;;;;;;;1.85;1.08;;;;;;;10.45;100.00;99718.50;7394731;19;20094;-83
2022/06/01 04:55:59;;;;;;;1.05;0.88;;;;;;;10.59;100.00;99716.97;7390904;19;20015;-82
2022/06/01 04:58:25;;;;;;;6.40;0.95;;;;;;;10.78;100.00;99723.16;7393104;19;20014;-82
2022/06/01 05:00:51;;;;;;;0.98;0.93;;;;;;;11.07;100.00;99723.88;7394693;19;20018;-83
2022/06/01 05:03:17;;;;;;;5.13;1.13;;;;;;;11.18;100.00;99720.50;7392850;19;20018;-83
2022/06/01 05:05:43;;;;;;;3.13;1.65;;;;;;;11.32;100.00;99716.94;7392627;19;20025;-84
2022/06/01 05:08:12;;;;;;;1.55;0.90;;;;;;;11.36;100.00;99723.09;7393468;19;20014;-83
2022/06/01 05:10:39;;;;;;;4.47;0.93;;;;;;;11.57;100.00;99721.88;7393986;19;20022;-83
2022/06/01 05:13:06;;;;;;;2.90;1.55;;;;;;;11.68;100.00;99716.47;7394860;19;20417;-82
2022/06/01 05:15:32;;;;;;;4.50;1.85;;;;;;;11.89;100.00;99725.66;7390485;19;20014;-83
2022/06/01 05:17:58;;;;;;;12.95;2.00;;;;;;;11.98;100.00;99717.88;7392511;19;20015;-84
2022/06/01 05:20:25;;;;;;;1.45;0.98;;;;;;;11.99;100.00;99730.59;7392738;19;20356;-81
2022/06/01 05:22:51;;;;;;;2.88;1.58;;;;;;;12.12;100.00;99728.22;7389967;19;20657;-81
2022/06/01 05:25:17;;;;;;;4.05;1.83;;;;;;;12.18;100.00;99722.69;7393414;19;20011;-82
2022/06/01 05:27:44;;;;;;;4.85;1.63;;;;;;;12.27;100.00;99727.38;7390681;19;20047;-82
2022/06/01 05:30:10;;;;;;;4.40;2.55;;;;;;;12.24;100.00;99731.13;7389950;19;20033;-82
2022/06/01 05:32:36;;;;;;;3.05;2.53;;;;;;;12.22;100.00;99736.44;7390767;19;20026;-82
2022/06/01 05:35:03;;;;;;;3.05;1.70;;;;;;;12.21;100.00;99734.91;7389426;19;20082;-81
2022/06/01 05:37:29;;;;;;;1.92;1.67;;;;;;;12.25;100.00;99735.47;7389957;19;20048;-82
2022/06/01 05:39:55;;;;;;;3.25;2.50;;;;;;;12.16;100.00;99739.94;7389036;19;20499;-81
2022/06/01 05:42:21;;;;;;;5.80;2.22;;;;;;;12.21;100.00;99729.34;7392925;19;20019;-81
2022/06/01 05:44:47;;;;;;;3.25;1.48;;;;;;;12.29;100.00;99747.19;7394431;19;20022;-81
2022/06/01 05:47:14;;;;;;;2.88;0.85;;;;;;;12.27;100.00;99744.13;7392061;19;20026;-82
2022/06/01 05:49:40;;;;;;;4.95;1.50;;;;;;;12.21;100.00;99744.06;7390084;19;20018;-81
2022/06/01 05:52:06;;;;;;;2.65;1.27;;;;;;;12.24;100.00;99745.88;7390614;19;20014;-82
2022/06/01 05:54:32;;;;;;;11.32;3.05;;;;;;;12.27;100.00;99752.50;7393739;19;20719;-82
2022/06/01 05:56:58;;;;;;;11.80;2.58;;;;;;;12.34;100.00;99749.28;7388376;19;20026;-82
2022/06/01 05:59:24;;;;;;;3.15;1.65;;;;;;;12.34;100.00;99760.47;7389445;19;20078;-82
2022/06/01 06:01:51;;;;;;;3.15;1.60;;;;;;;12.39;100.00;99762.56;7386136;19;20015;-82
2022/06/01 06:04:17;;;;;;;2.80;1.45;;;;;;;12.41;100.00;99760.03;7390173;19;20011;-82
2022/06/01 06:06:43;;;;;;;2.33;1.55;;;;;;;12.43;100.00;99768.69;7389407;19;20492;-81
2022/06/01 06:09:09;;;;;;;4.75;1.30;;;;;;;12.41;100.00;99771.22;7389337;19;20086;-82
2022/06/01 06:11:38;;;;;;;1.27;1.10;;;;;;;12.66;100.00;99770.47;7393892;19;20038;-82
2022/06/01 06:14:05;;;;;;;3.47;1.50;;;;;;;12.69;100.00;99770.25;7390957;19;20021;-81
2022/06/01 06:16:35;;;;;;;4.18;1.33;;;;;;;12.67;100.00;99774.78;7388857;19;20014;-82
2022/06/01 06:19:03;;;;;;;2.28;1.10;;;;;;;12.65;100.00;99768.91;7390373;19;20457;-84
2022/06/01 06:21:30;;;;;;;1.75;1.02;;;;;;;12.79;100.00;99768.06;7392876;19;20023;-85
2022/06/01 06:24:02;;;;;;;2.65;1.52;;;;;;;12.89;100.00;99772.22;7395606;19;20018;-84
2022/06/01 06:26:28;;;;;;;7.90;1.88;;;;;;;12.94;100.00;99780.69;7394687;19;20475;-85
2022/06/01 06:28:55;;;;;;;5.97;1.45;;;;;;;12.94;100.00;99763.13;7392876;19;20476;-85
2022/06/01 06:31:21;;;;;;;1.35;1.00;;;;;;;12.99;100.00;99768.03;7392963;19;20026;-85
2022/06/01 06:33:48;;;;;;;1.67;1.13;;;;;;;12.96;100.00;99777.38;7394320;19;20018;-85
2022/06/01 06:36:14;;;;;;;1.80;1.45;;;;;;;12.85;100.00;99780.84;7389877;19;20089;-85
2022/06/01 06:38:41;;;;;;;4.75;1.15;;;;;;;12.95;100.00;99784.22;7393182;19;20014;-86
2022/06/01 06:41:10;;;;;;;4.55;1.52;;;;;;;13.04;100.00;99786.09;7390798;19;20023;-85
2022/06/01 06:43:37;;;;;;;1.88;1.20;;;;;;;13.10;100.00;99775.78;7393484;19;20373;-85
2022/06/01 06:46:07;;;;;;;4.90;1.63;;;;;;;13.17;100.00;99784.47;7392955;19;20021;-84
2022/06/01 06:48:34;;;;;;;1.20;0.95;;;;;;;13.34;100.00;99790.97;7392703;19;20019;-85
2022/06/01 06:51:01;;;;;;;2.17;1.20;;;;;;;13.54;100.00;99788.09;7394903;19;20361;-87
2022/06/01 06:53:28;;;;;;;6.22;2.55;;;;;;;13.71;100.00;99795.84;7392858;19;20014;-85
2022/06/01 06:55:54;;;;;;;3.40;1.75;;;;;;;13.77;100.00;99794.63;7390140;19;20364;-84
2022/06/01 06:58:21;;;;;;;1.73;1.00;;;;;;;13.92;100.00;99791.66;7393024;19;20024;-84
2022/06/01 07:00:47;;;;;;;2.70;1.48;;;;;;;13.90;100.00;99791.38;7391883;19;20058;-87
2022/06/01 07:03:13;;;;;;;8.10;2.00;;;;;;;14.00;100.00;99809.50;7394750;19;20040;-85
2022/06/01 07:08:26;;;;;;;1.50;0.80;;;;;;;14.16;100.00;99800.44;7395041;19;20417;-86
2022/06/01 07:10:53;;;;;;;0.77;0.63;;;;;;;14.26;100.00;99804.56;7393551;19;20085;-85
2022/06/01 07:13:21;;;;;;;1.65;1.55;;;;;;;14.35;100.00;99805.16;7393476;19;20015;-85
2022/06/01 07:15:48;;;;;;;1.48;0.75;;;;;;;14.58;100.00;99803.19;7391463;19;20028;-88
2022/06/01 07:18:15;;;;;;;1.77;0.55;;;;;;;14.94;100.00;99810.69;7392992;19;20108;-88
2022/06/01 07:20:41;;;;;;;5.43;1.10;;;;;;;15.43;100.00;99808.44;7392528;19;20021;-87
2022/06/01 07:23:07;;;;;;;11.85;3.80;;;;;;;15.64;100.00;99813.31;7395252;19;20014;-87
2022/06/01 07:25:33;;;;;;;2.72;1.15;;;;;;;15.55;100.00;99815.63;7392685;19;20037;-87
2022/06/01 07:27:59;;;;;;;1.35;1.25;;;;;;;15.28;100.00;99805.13;7393532;19;20022;-88
2022/06/01 07:30:25;;;;;;;4.97;1.33;;;;;;;14.95;100.00;99819.88;7393275;19;20006;-87
2022/06/01 07:32:52;;;;;;;0.77;0.77;;;;;;;14.87;100.00;99821.63;7393194;19;20010;-88
2022/06/01 07:35:18;;;;;;;1.10;0.60;;;;;;;14.84;100.00;99814.22;7393036;19;20043;-87
2022/06/01 07:43:17;;;;;;;3.25;0.77;;;;;;;15.10;100.00;99823.97;7394386;19;20029;-89
2022/06/01 07:45:47;;;;;;;0.52;0.50;;;;;;;15.04;100.00;99826.00;7392977;19;20026;-89
2022/06/01 07:48:14;;;;;;;0.60;0.60;;;;;;;15.03;100.00;99827.28;7392589;19;20018;-89
2022/06/01 07:50:40;;;;;;;0.77;0.45;;;;;;;15.13;100.00;99820.16;7393138;19;20015;-88
2022/06/01 07:53:08;;;;;;;0.43;0.30;;;;;;;15.24;100.00;99829.88;7415381;19;20101;-89
2022/06/01 07:55:35;;;;;;;0.90;0.55;;;;;;;15.31;100.00;99826.56;7405381;19;20078;-89
2022/06/01 07:58:03;;;;;;;0.32;0.30;;;;;;;15.24;100.00;99829.88;7402001;19;20026;-89
2022/06/01 08:00:30;;;;;;;0.60;0.40;;;;;;;15.35;100.00;99821.47;7401288;19;20025;-89
2022/06/01 08:02:56;;;;;;;1.85;0.65;;;;;;;15.60;100.00;99831.69;7400730;19;20022;-89
2022/06/01 08:05:23;;;;;;;0.28;0.20;;;;;;;15.86;100.00;99832.19;7400695;19;20090;-89
2022/06/01 08:07:50;;;;;;;0.38;0.28;;;;;;;16.26;100.00;99831.63;7398464;19;20353;-88
2022/06/01 08:10:19;;;;;;;1.05;0.88;;;;;;;16.62;100.00;99830.50;7400171;19;20299;-88
2022/06/01 08:15:30;;;;;;;0.77;0.30;;;;;;;17.26;100.00;99836.78;7398569;19;20469;-87
2022/06/01 08:17:57;;;;;;;1.60;0.30;;;;;;;17.55;100.00;99829.69;7401808;19;20007;-86
2022/06/01 08:20:25;;;;;;;0.25;0.15;;;;;;;17.75;100.00;99830.03;7400802;19;20072;-88
2022/06/01 08:22:52;;;;;;;0.10;0.10;;;;;;;17.42;100.00;99844.34;7399623;19;20011;-87
2022/06/01 08:25:20;;;;;;;0.65;0.20;;;;;;;17.09;100.00;99833.28;7398120;19;20033;-86
2022/06/01 08:27:47;;;;;;;0.35;0.10;;;;;;;16.92;100.00;99847.47;7400104;19;20559;-87
2022/06/01 08:30:15;;;;;;;0.88;0.40;;;;;;;16.94;100.00;99838.50;7399933;19;20015;-87
2022/06/01 08:32:42;;;;;;;0.30;0.30;;;;;;;16.64;100.00;99847.59;7399107;19;20014;-87
2022/06/01 08:35:11;;;;;;;0.30;0.30;;;;;;;16.49;100.00;99849.94;7399007;19;20479;-86
2022/06/01 08:37:37;;;;;;;0.30;0.08;;;;;;;16.90;100.00;99838.03;7399788;19;20015;-87
2022/06/01 08:40:05;;;;;;;0.65;0.65;;;;;;;17.19;100.00;99845.78;7398982;19;20424;-87
2022/06/01 08:42:33;;;;;;;0.40;0.20;;;;;;;17.47;100.00;99846.38;7399590;19;20027;-86
2022/06/01 08:45:04;;;;;;;2.10;0.35;;;;;;;17.66;100.00;99847.25;7395728;19;20848;-87
2022/06/01 08:47:34;;;;;;;0.65;0.20;;;;;;;17.77;100.00;99846.41;7398498;19;20375;-87
2022/06/01 08:50:06;;;;;;;0.30;0.30;;;;;;;17.96;100.00;99856.47;7400136;19;20026;-87
2022/06/01 08:52:32;;;;;;;0.10;0.10;;;;;;;18.08;100.00;99843.78;7398394;19;20231;-87
2022/06/01 08:54:58;;;;;;;0.30;0.25;;;;;;;18.27;100.00;99851.56;7398457;19;20010;-86
2022/06/01 08:57:48;;;;;;;0.40;0.20;;;;;;;18.52;100.00;99847.44;7399155;19;20007;-87
2022/06/01 09:00:18;;;;;;;0.52;0.38;;;;;;;18.94;100.00;99857.97;7399458;19;20014;-87
2022/06/01 09:02:57;;;;;;;0.67;0.10;;;;;;;19.48;100.00;99850.03;7397385;19;20022;-85
2022/06/01 09:05:47;;;;;;;0.20;0.10;;;;;;;20.16;100.00;99851.16;7396807;19;20567;-86
2022/06/01 09:08:48;;;;;;;0.10;0.00;;;;;;;20.30;100.00;99858.38;7397566;19;20019;-86
2022/06/01 09:11:22;;;;;;;4.68;0.40;;;;;;;20.18;100.00;99847.81;7397071;19;20082;-86
2022/06/01 09:14:13;;;;;;;0.52;0.20;;;;;;;19.93;100.00;99857.75;7397736;19;20022;-85
2022/06/01 09:16:43;;;;;;;0.52;0.20;;;;;;;19.93;100.00;99852.88;7397569;19;20006;-86
2022/06/01 09:19:16;;;;;;;0.30;0.10;;;;;;;19.57;100.00;99852.44;7397915;19;20082;-84
2022/06/01 09:24:44;;;;;;;0.55;0.32;;;;;;;19.18;100.00;99855.06;7399625;19;20389;-85
2022/06/01 09:27:13;;;;;;;0.10;0.08;;;;;;;19.02;100.00;99858.88;7397195;19;20021;-85
2022/06/01 09:29:51;;;;;;;0.40;0.20;;;;;;;18.89;100.00;99862.38;7395434;19;20118;-85
2022/06/01 09:32:27;;;;;;;0.28;0.17;;;;;;;18.81;100.00;99869.16;7393494;19;20045;-85
2022/06/01 09:35:00;;;;;;;4.78;0.22;;;;;;;18.96;100.00;99869.47;7391649;19;20054;-85
2022/06/01 09:37:31;;;;;;;0.10;0.10;;;;;;;19.42;100.00;99871.19;7394331;19;20605;-85
2022/06/01 09:40:06;;;;;;;0.10;0.00;;;;;;;19.46;100.00;99878.03;7392908;19;20398;-85
2022/06/01 09:42:36;;;;;;;0.30;0.17;;;;;;;19.43;100.00;99873.44;7397434;19;20042;-87
2022/06/01 09:45:13;;;;;;;1.42;0.10;;;;;;;19.22;100.00;99880.94;7394167;19;20336;-84
2022/06/01 09:47:43;;;;;;;0.10;0.10;;;;;;;18.92;100.00;99872.63;7395805;19;20019;-85
2022/06/01 09:50:28;;;;;;;0.10;0.10;;;;;;;18.74;100.00;99872.56;7396347;19;20010;-86
2022/06/01 09:53:14;;;;;;;0.95;0.20;;;;;;;18.98;100.00;99877.41;7395057;19;20011;-86
2022/06/01 09:55:52;;;;;;;1.38;0.45;;;;;;;18.93;100.00;99876.94;7392059;19;20463;-85
2022/06/01 10:06:55;;;;;;;1.30;0.10;;;;;;;18.21;100.00;99885.44;7394218;19;20015;-84
2022/06/01 10:09:27;;;;;;;0.25;0.25;;;;;;;18.21;100.00;99888.28;7396803;19;20020;-85
2022/06/01 10:11:55;;;;;;;0.90;0.40;;;;;;;18.61;100.00;99892.22;7397548;19;20461;-85
2022/06/01 10:14:37;;;;;;;0.70;0.70;;;;;;;19.09;100.00;99878.03;7397058;19;20014;-84
2022/06/01 10:17:19;;;;;;;0.57;0.30;;;;;;;19.64;100.00;99877.22;7392409;19;20106;-85
2022/06/01 10:19:55;;;;;;;0.20;0.13;;;;;;;20.18;100.00;99878.91;7391911;19;20019;-85
2022/06/01 10:22:39;;;;;;;1.58;0.10;;;;;;;20.60;100.00;99885.59;7391441;19;20082;-84
2022/06/01 10:25:13;;;;;;;0.22;0.00;;;;;;;21.12;100.00;99879.91;7393520;19;20018;-86
2022/06/01 10:27:50;;;;;;;0.10;0.05;;;;;;;21.41;100.00;99887.25;7392193;19;20508;-87
2022/06/01 10:30:24;;;;;;;0.45;0.10;;;;;;;21.39;100.00;99880.59;7392463;19;20025;-86
2022/06/01 10:32:54;;;;;;;0.55;0.28;;;;;;;20.99;100.00;99883.50;7392743;19;20011;-86
2022/06/01 10:35:45;;;;;;;0.97;0.10;;;;;;;20.65;100.00;99891.16;7394435;19;20074;-86
2022/06/01 10:38:17;;;;;;;0.10;0.10;;;;;;;20.21;100.00;99884.25;7394049;19;20018;-86
2022/06/01 10:40:46;;;;;;;0.32;0.13;;;;;;;19.68;100.00;99894.63;7390795;19;20022;-83
2022/06/01 10:43:38;;;;;;;1.75;0.20;;;;;;;19.45;100.00;99893.44;7394267;19;20018;-83
2022/06/01 10:46:23;;;;;;;4.43;1.23;;;;;;;19.52;100.00;99903.38;7390911;19;20893;-84
2022/06/01 10:49:12;;;;;;;2.38;0.93;;;;;;;19.49;100.00;99905.19;7394364;19;20018;-85
2022/06/01 10:51:38;;;;;;;4.47;0.22;;;;;;;19.45;100.00;99904.75;7392184;19;20074;-85
2022/06/01 10:54:17;;;;;;;3.25;0.30;;;;;;;19.49;100.00;99904.47;7410761;19;20006;-85
2022/06/01 10:56:43;;;;;;;5.32;0.52;;;;;;;19.39;100.00;99918.19;7399205;19;20046;-84
2022/06/01 10:59:16;;;;;;;1.20;0.30;;;;;;;19.42;100.00;99914.31;7394492;19;20014;-85
2022/06/01 11:02:20;;;;;;;0.98;0.30;;;;;;;19.23;100.00;99916.31;7393955;19;20023;-85
2022/06/01 11:05:09;;;;;;;0.70;0.20;;;;;;;19.12;100.00;99922.16;7395940;19;20367;-86
2022/06/01 11:07:50;;;;;;;0.20;0.20;;;;;;;19.25;100.00;99918.63;7391703;19;20841;-85
2022/06/01 11:10:44;;;;;;;0.32;0.10;;;;;;;19.32;100.00;99924.41;7391851;19;20524;-83
2022/06/01 11:13:19;;;;;;;0.73;0.60;;;;;;;19.40;100.00;99933.84;7392271;19;20047;-84
2022/06/01 11:15:51;;;;;;;0.20;0.20;;;;;;;19.45;100.00;99932.22;7390808;19;20062;-84
2022/06/01 11:18:52;;;;;;;0.30;0.20;;;;;;;19.62;100.00;99927.13;7389427;19;20475;-84
2022/06/01 11:21:50;;;;;;;1.25;0.10;;;;;;;20.07;100.00;99930.00;7388588;19;20023;-84
2022/06/01 11:24:26;;;;;;;0.88;0.60;;;;;;;20.14;100.00;99935.03;7393838;19;20366;-84
2022/06/01 11:27:05;;;;;;;1.80;0.15;;;;;;;20.47;100.00;99928.78;7390313;19;20022;-83
2022/06/01 11:29:34;;;;;;;12.20;0.35;;;;;;;20.62;100.00;99934.69;7391040;19;20018;-84
2022/06/01 11:32:07;;;;;;;0.10;0.10;;;;;;;20.72;100.00;99932.97;7388003;19;20025;-83
2022/06/01 11:35:01;;;;;;;1.15;0.20;;;;;;;20.85;100.00;99941.47;7392358;19;20026;-84
2022/06/01 11:37:35;;;;;;;0.25;0.25;;;;;;;21.12;100.00;99945.81;7389171;19;20033;-84
2022/06/01 11:40:09;;;;;;;0.43;0.00;;;;;;;21.30;98.62;99934.88;7387988;19;20015;-85
2022/06/01 11:42:43;;;;;;;0.38;0.10;;;;;;;21.39;100.00;99937.28;7392326;19;20402;-83
2022/06/01 11:45:48;;;;;;;0.28;0.10;;;;;;;21.05;99.98;99935.13;7390316;19;20078;-93
2022/06/01 11:48:22;;;;;;;0.20;0.10;;;;;;;20.91;100.00;99930.78;7391902;19;20507;-95
2022/06/01 11:51:25;;;;;;;0.60;0.13;;;;;;;20.74;100.00;99938.84;7392778;19;20021;-88
2022/06/01 11:54:08;;;;;;;1.55;0.30;;;;;;;20.74;100.00;99941.66;7396373;19;20034;-93
2022/06/01 11:56:45;;;;;;;0.20;0.10;;;;;;;20.61;100.00;99938.84;7402605;19;20046;-96
2022/06/01 11:59:27;;;;;;;0.10;0.00;;;;;;;20.50;100.00;99944.69;7395543;19;20019;-93
2022/06/01 12:02:42;;;;;;;0.30;0.20;;;;;;;20.35;100.00;99935.97;7398888;19;20011;-91
2022/06/01 12:05:13;;;;;;;0.30;0.10;;;;;;;20.18;100.00;99935.47;7399588;19;20716;-96
2022/06/01 12:07:46;;;;;;;0.47;0.32;;;;;;;20.45;100.00;99945.56;7395867;19;20040;-90
2022/06/01 12:10:18;;;;;;;0.68;0.10;;;;;;;20.93;100.00;99947.97;7393652;19;20019;-92
2022/06/01 12:12:55;;;;;;;0.57;0.20;;;;;;;21.48;100.00;99950.97;7395058;19;20015;-87
2022/06/01 12:15:35;;;;;;;1.48;0.20;;;;;;;21.69;100.00;99946.88;7391103;19;20022;-88
2022/06/01 12:18:19;;;;;;;0.65;0.10;;;;;;;21.69;100.00;99946.13;7392566;19;20014;-85